createdAt,value
2022-08-25T00:04:57.494Z,72.70
2022-08-25T00:10:26.238Z,72.90
2022-08-25T00:15:54.636Z,73.10
2022-08-25T00:21:23.654Z,73.30
2022-08-25T00:26:55.409Z,73.50
2022-08-25T00:32:24.563Z,73.70
2022-08-25T00:37:52.359Z,73.80
2022-08-25T00:43:20.331Z,74.00
2022-08-25T00:48:54.125Z,74.20
2022-08-25T00:54:32.776Z,74.40
2022-08-25T01:00:01.420Z,74.70
2022-08-25T01:05:31.325Z,74.80
2022-08-25T01:11:05.523Z,75.10
2022-08-25T01:16:38.726Z,75.30
2022-08-25T01:22:07.519Z,75.40
2022-08-25T01:27:35.525Z,75.70
2022-08-25T01:33:07.079Z,75.80
2022-08-25T01:38:34.910Z,76.00
2022-08-25T01:44:07.357Z,76.20
2022-08-25T01:49:42.531Z,76.40
2022-08-25T01:55:10.305Z,76.50
2022-08-25T02:00:38.276Z,76.70
2022-08-25T02:06:07.850Z,76.90
2022-08-25T02:11:39.186Z,77.00
2022-08-25T02:17:07.812Z,77.20
2022-08-25T02:22:35.925Z,77.40
2022-08-25T02:28:04.330Z,77.50
2022-08-25T02:33:41.455Z,77.60
2022-08-25T02:39:10.841Z,77.80
2022-08-25T02:44:38.787Z,78.00
2022-08-25T02:50:08.992Z,78.00
2022-08-25T02:55:37.159Z,78.20
2022-08-25T03:01:06.036Z,78.20
2022-08-25T03:06:34.529Z,78.30
2022-08-25T03:12:02.579Z,78.40
2022-08-25T03:17:30.548Z,78.40
2022-08-25T03:23:07.261Z,78.60
2022-08-25T03:28:45.391Z,78.70
2022-08-25T03:34:18.647Z,78.80
2022-08-25T03:39:46.590Z,79.00
2022-08-25T03:45:17.343Z,79.00
2022-08-25T03:50:51.527Z,79.20
2022-08-25T03:56:20.364Z,79.40
2022-08-25T04:01:54.027Z,79.80
2022-08-25T04:07:22.862Z,79.80
2022-08-25T04:12:50.754Z,79.90
2022-08-25T04:18:18.545Z,79.90
2022-08-25T04:23:49.055Z,80.10
2022-08-25T04:29:28.145Z,80.30
2022-08-25T04:34:59.176Z,80.30
2022-08-25T04:40:29.062Z,80.20
2022-08-25T04:45:57.469Z,80.30
2022-08-25T04:51:40.460Z,80.20
2022-08-25T04:57:08.270Z,80.40
2022-08-25T05:02:36.250Z,80.30
2022-08-25T05:08:06.661Z,80.20
2022-08-25T05:13:36.221Z,80.30
2022-08-25T05:19:04.927Z,80.40
2022-08-25T05:24:32.834Z,80.50
2022-08-25T05:30:00.627Z,80.60
2022-08-25T05:35:28.522Z,80.60
2022-08-25T05:41:03.118Z,80.80
2022-08-25T05:46:31.763Z,80.70
2022-08-25T05:51:59.907Z,80.80
2022-08-25T05:57:27.733Z,80.90
2022-08-25T06:02:55.577Z,81.00
2022-08-25T06:08:24.196Z,81.00
2022-08-25T06:13:51.965Z,81.20
2022-08-25T06:19:19.848Z,81.30
2022-08-25T06:24:48.196Z,81.40
2022-08-25T06:30:24.141Z,81.40
2022-08-25T06:35:59.576Z,81.50
2022-08-25T06:41:27.633Z,81.40
2022-08-25T06:47:05.095Z,81.50
2022-08-25T06:52:33.401Z,81.50
2022-08-25T06:58:03.391Z,81.40
2022-08-25T07:03:32.762Z,81.30
2022-08-25T07:09:00.600Z,81.30
2022-08-25T07:14:28.614Z,81.30
2022-08-25T07:19:57.514Z,81.20
2022-08-25T07:25:25.565Z,81.20
2022-08-25T07:30:53.438Z,81.10
2022-08-25T07:36:22.538Z,81.20
2022-08-25T07:41:52.016Z,81.00
2022-08-25T07:47:20.327Z,80.90
2022-08-25T07:52:55.289Z,80.70
2022-08-25T07:58:24.249Z,80.70
2022-08-25T08:03:53.263Z,80.60
2022-08-25T08:09:21.140Z,80.50
2022-08-25T08:14:49.466Z,80.40
2022-08-25T08:20:17.849Z,80.10
2022-08-25T08:25:51.578Z,80.10
2022-08-25T08:31:24.270Z,79.90
2022-08-25T08:36:54.575Z,79.50
2022-08-25T08:42:47.308Z,79.50
2022-08-25T08:48:20.711Z,79.20
2022-08-25T08:53:54.997Z,78.70
2022-08-25T08:59:33.259Z,78.70
2022-08-25T09:05:08.739Z,78.30
2022-08-25T09:10:45.760Z,78.20
2022-08-25T09:16:56.417Z,77.90
2022-08-25T09:22:38.084Z,77.70
2022-08-25T09:28:51.501Z,77.50
2022-08-25T09:34:23.159Z,77.20
2022-08-25T09:39:51.453Z,77.10
2022-08-25T09:45:34.637Z,76.50
2022-08-25T09:51:42.668Z,76.20
2022-08-25T09:57:34.559Z,75.90
2022-08-25T10:03:14.211Z,75.70
2022-08-25T10:08:46.933Z,75.40
2022-08-25T10:14:22.871Z,74.50
2022-08-25T10:20:11.767Z,74.20
2022-08-25T10:25:59.294Z,73.60
2022-08-25T10:32:00.613Z,72.80
2022-08-25T10:37:43.808Z,72.30
2022-08-25T10:44:02.011Z,71.80
2022-08-25T10:49:56.254Z,71.30
2022-08-25T10:55:54.209Z,71.30
2022-08-25T11:01:47.939Z,71.00
2022-08-25T11:07:29.810Z,70.60
2022-08-25T11:13:01.966Z,69.80
2022-08-25T11:18:32.028Z,69.30
2022-08-25T11:24:29.141Z,68.80
2022-08-25T11:30:15.831Z,68.80
2022-08-25T11:35:51.441Z,68.20
2022-08-25T11:41:58.137Z,67.80
2022-08-25T11:48:25.368Z,67.80
2022-08-25T11:54:27.503Z,67.80
2022-08-25T12:00:14.761Z,66.60
2022-08-25T12:06:14.390Z,66.10
2022-08-25T12:11:43.114Z,66.10
2022-08-25T12:17:25.109Z,65.80
2022-08-25T12:22:57.005Z,65.60
2022-08-25T12:29:07.570Z,65.30
2022-08-25T12:35:10.290Z,65.00
2022-08-25T12:40:45.410Z,64.90
2022-08-25T12:46:27.564Z,64.00
2022-08-25T12:52:20.119Z,64.00
2022-08-25T12:57:58.782Z,63.70
2022-08-25T13:04:12.666Z,63.40
2022-08-25T13:10:15.972Z,63.20
2022-08-25T13:16:02.275Z,62.90
2022-08-25T13:21:38.661Z,62.70
2022-08-25T13:27:10.723Z,62.20
2022-08-25T13:32:39.598Z,62.20
2022-08-25T13:38:19.567Z,62.40
2022-08-25T13:43:47.903Z,62.00
2022-08-25T13:49:26.662Z,62.00
2022-08-25T13:55:00.793Z,61.40
2022-08-25T14:00:43.169Z,62.00
2022-08-25T14:06:17.124Z,60.70
2022-08-25T14:11:56.595Z,58.60
2022-08-25T14:17:39.138Z,57.00
2022-08-25T14:23:16.144Z,55.50
2022-08-25T14:28:46.993Z,52.20
2022-08-25T14:34:39.570Z,52.90
2022-08-25T14:40:12.675Z,51.00
2022-08-25T14:45:48.234Z,48.70
2022-08-25T14:51:19.091Z,50.60
2022-08-25T14:56:49.911Z,52.30
2022-08-25T15:02:20.291Z,53.80
2022-08-25T15:08:07.288Z,53.50
2022-08-25T15:13:35.793Z,54.20
2022-08-25T15:19:11.826Z,55.30
2022-08-25T15:24:39.699Z,55.80
2022-08-25T15:30:09.184Z,56.20
2022-08-25T15:35:41.627Z,56.60
2022-08-25T15:41:12.858Z,56.90
2022-08-25T15:46:41.735Z,57.20
2022-08-25T15:52:15.110Z,57.40
2022-08-25T15:57:43.567Z,57.70
2022-08-25T16:03:12.442Z,58.00
2022-08-25T16:08:41.228Z,58.20
2022-08-25T16:14:12.081Z,58.60
2022-08-25T16:19:41.800Z,58.80
2022-08-25T16:25:10.818Z,58.90
2022-08-25T16:30:42.774Z,59.00
2022-08-25T16:36:22.780Z,59.20
2022-08-25T16:41:52.221Z,59.30
2022-08-25T16:47:25.214Z,59.50
2022-08-25T16:53:13.616Z,59.70
2022-08-25T16:58:41.636Z,60.00
2022-08-25T17:04:13.765Z,60.40
2022-08-25T17:09:41.895Z,60.70
2022-08-25T17:15:10.121Z,61.00
2022-08-25T17:20:38.433Z,61.30
2022-08-25T17:26:07.054Z,61.60
2022-08-25T17:31:43.151Z,61.80
2022-08-25T17:37:12.119Z,62.10
2022-08-25T17:42:40.826Z,62.40
2022-08-25T17:48:09.998Z,62.70
2022-08-25T17:53:38.657Z,62.90
2022-08-25T17:59:06.886Z,63.20
2022-08-25T18:04:35.718Z,63.50
2022-08-25T18:10:08.895Z,63.80
2022-08-25T18:15:36.925Z,64.10
2022-08-25T18:21:05.817Z,64.40
2022-08-25T18:26:35.440Z,64.70
2022-08-25T18:32:04.980Z,65.00
2022-08-25T18:37:53.402Z,65.30
2022-08-25T18:43:21.490Z,65.60
2022-08-25T18:48:52.836Z,66.00
2022-08-25T18:54:23.307Z,66.10
2022-08-25T18:59:52.928Z,66.60
2022-08-25T19:05:31.912Z,66.70
2022-08-25T19:11:01.035Z,67.10
2022-08-25T19:16:47.004Z,67.40
2022-08-25T19:22:31.794Z,67.50
2022-08-25T19:28:07.122Z,67.80
2022-08-25T19:33:44.135Z,68.10
2022-08-25T19:39:16.482Z,68.30
2022-08-25T19:44:45.132Z,68.50
2022-08-25T19:50:16.724Z,68.80
2022-08-25T19:55:44.925Z,69.10
2022-08-25T20:01:13.035Z,69.30
2022-08-25T20:06:48.261Z,69.60
2022-08-25T20:12:17.916Z,69.80
2022-08-25T20:17:46.173Z,70.00
2022-08-25T20:23:32.699Z,70.30
2022-08-25T20:29:00.788Z,70.50
2022-08-25T20:34:32.657Z,70.80
2022-08-25T20:40:02.269Z,71.00
2022-08-25T20:45:33.467Z,71.20
2022-08-25T20:51:09.401Z,71.40
2022-08-25T20:56:38.623Z,71.60
2022-08-25T21:02:06.884Z,71.80
2022-08-25T21:07:38.186Z,72.00
2022-08-25T21:13:08.155Z,72.30
2022-08-25T21:18:36.828Z,72.60
2022-08-25T21:24:09.735Z,72.80
2022-08-25T21:29:38.443Z,73.20
2022-08-25T21:35:13.298Z,73.10
2022-08-25T21:40:44.904Z,73.40
2022-08-25T21:46:19.469Z,73.70
2022-08-25T21:51:47.338Z,73.80
2022-08-25T21:57:23.534Z,74.00
2022-08-25T22:02:56.241Z,74.20
2022-08-25T22:08:24.188Z,74.40
2022-08-25T22:14:00.685Z,74.60
2022-08-25T22:19:28.719Z,74.90
2022-08-25T22:24:56.602Z,75.00
2022-08-25T22:30:26.102Z,75.20
2022-08-25T22:35:59.756Z,75.30
2022-08-25T22:41:30.278Z,75.50
2022-08-25T22:46:58.257Z,75.70
2022-08-25T22:52:33.594Z,76.00
2022-08-25T22:58:02.520Z,76.10
2022-08-25T23:03:30.980Z,76.30
2022-08-25T23:09:04.644Z,76.50
2022-08-25T23:14:42.214Z,76.70
2022-08-25T23:20:31.113Z,76.90
2022-08-25T23:25:59.069Z,77.10
2022-08-25T23:31:26.965Z,77.30
2022-08-25T23:36:57.106Z,77.50
2022-08-25T23:42:25.151Z,77.70
2022-08-25T23:47:53.222Z,77.90
2022-08-25T23:53:21.521Z,78.00
2022-08-25T23:58:49.537Z,78.20
